Time,TemperatureF,DewpointF,PressureIn,WindDirection,WindDirectionDegrees,WindSpeedMPH,WindSpeedGustMPH,Humidity,HourlyPrecipIn,Conditions,Clouds,dailyrainin,SoftwareType,DateUTC
2013-10-14 00:03:00,42.5,41.0,30.42,ENE,60,0.0,0.0,95,0.00,,,0.00,weatherlink.com 1.10,2013-10-14 04:03:00,
2013-10-14 00:16:00,42.4,41.0,30.41,ENE,60,0.0,0.0,95,0.00,,,0.00,weatherlink.com 1.10,2013-10-14 04:16:00,
2013-10-14 00:31:00,41.7,40.0,30.41,ENE,60,0.0,1.0,95,0.00,,,0.00,weatherlink.com 1.10,2013-10-14 04:31:00,
2013-10-14 00:46:00,40.9,39.0,30.41,ENE,60,0.0,0.0,94,0.00,,,0.00,weatherlink.com 1.10,2013-10-14 04:46:00,
2013-10-14 01:04:00,40.4,39.0,30.41,ENE,60,0.0,1.0,95,0.00,,,0.00,weatherlink.com 1.10,2013-10-14 05:04:00,
2013-10-14 01:17:00,40.3,39.0,30.41,ENE,60,0.0,0.0,95,0.00,,,0.00,weatherlink.com 1.10,2013-10-14 05:17:00,
2013-10-14 01:32:00,39.6,38.0,30.40,ENE,60,0.0,0.0,95,0.00,,,0.00,weatherlink.com 1.10,2013-10-14 05:32:00,
2013-10-14 01:47:00,39.2,38.0,30.40,ENE,60,0.0,0.0,95,0.00,,,0.00,weatherlink.com 1.10,2013-10-14 05:47:00,
2013-10-14 02:06:00,38.5,37.0,30.39,ENE,60,0.0,0.0,95,0.00,,,0.00,weatherlink.com 1.10,2013-10-14 06:06:00,
2013-10-14 02:17:00,38.2,37.0,30.39,ENE,60,0.0,0.0,95,0.00,,,0.00,weatherlink.com 1.10,2013-10-14 06:17:00,
2013-10-14 02:32:00,37.8,37.0,30.39,ENE,60,0.0,0.0,95,0.00,,,0.00,weatherlink.com 1.10,2013-10-14 06:32:00,
2013-10-14 02:47:00,37.4,36.0,30.38,ENE,60,0.0,0.0,95,0.00,,,0.00,weatherlink.com 1.10,2013-10-14 06:47:00,
2013-10-14 03:05:00,37.0,36.0,30.38,ENE,60,0.0,0.0,95,0.00,,,0.00,weatherlink.com 1.10,2013-10-14 07:05:00,
2013-10-14 03:16:00,36.9,36.0,30.38,ENE,60,0.0,0.0,95,0.00,,,0.00,weatherlink.com 1.10,2013-10-14 07:16:00,
2013-10-14 03:32:00,37.4,36.0,30.38,ENE,60,0.0,0.0,96,0.00,,,0.00,weatherlink.com 1.10,2013-10-14 07:32:00,
2013-10-14 03:47:00,37.3,36.0,30.38,ENE,60,0.0,1.0,96,0.00,,,0.00,weatherlink.com 1.10,2013-10-14 07:47:00,
2013-10-14 04:05:00,37.3,36.0,30.38,ENE,60,0.0,0.0,96,0.00,,,0.00,weatherlink.com 1.10,2013-10-14 08:05:00,
2013-10-14 04:16:00,37.7,37.0,30.38,ENE,60,0.0,0.0,96,0.00,,,0.00,weatherlink.com 1.10,2013-10-14 08:16:00,
2013-10-14 04:31:00,37.9,37.0,30.38,ENE,60,0.0,0.0,96,0.00,,,0.00,weatherlink.com 1.10,2013-10-14 08:31:00,
2013-10-14 04:46:00,38.1,37.0,30.37,ENE,60,0.0,0.0,96,0.00,,,0.00,weatherlink.com 1.10,2013-10-14 08:46:00,
2013-10-14 05:05:00,37.7,37.0,30.38,ENE,60,0.0,0.0,96,0.00,,,0.00,weatherlink.com 1.10,2013-10-14 09:05:00,
2013-10-14 05:16:00,37.3,36.0,30.38,ENE,60,0.0,0.0,96,0.00,,,0.00,weatherlink.com 1.10,2013-10-14 09:16:00,
2013-10-14 05:31:00,36.7,35.0,30.37,ENE,60,0.0,0.0,95,0.00,,,0.00,weatherlink.com 1.10,2013-10-14 09:31:00,
2013-10-14 05:46:00,36.2,35.0,30.38,ENE,60,0.0,0.0,95,0.00,,,0.00,weatherlink.com 1.10,2013-10-14 09:46:00,
2013-10-14 06:06:00,35.9,35.0,30.37,ENE,60,0.0,0.0,96,0.00,,,0.00,weatherlink.com 1.10,2013-10-14 10:06:00,
2013-10-14 06:17:00,35.4,34.0,30.38,ENE,60,0.0,0.0,95,0.00,,,0.00,weatherlink.com 1.10,2013-10-14 10:17:00,
2013-10-14 06:32:00,35.0,34.0,30.38,ENE,60,0.0,0.0,95,0.00,,,0.00,weatherlink.com 1.10,2013-10-14 10:32:00,
2013-10-14 06:47:00,35.5,35.0,30.38,ENE,60,0.0,0.0,96,0.00,,,0.00,weatherlink.com 1.10,2013-10-14 10:47:00,
2013-10-14 07:05:00,36.0,35.0,30.38,ENE,60,0.0,1.0,96,0.00,,,0.00,weatherlink.com 1.10,2013-10-14 11:05:00,
2013-10-14 07:18:00,35.8,35.0,30.38,ENE,60,0.0,0.0,96,0.00,,,0.00,weatherlink.com 1.10,2013-10-14 11:18:00,
2013-10-14 07:33:00,36.2,35.0,30.38,ENE,60,0.0,0.0,96,0.00,,,0.00,weatherlink.com 1.10,2013-10-14 11:33:00,
2013-10-14 07:48:00,37.5,37.0,30.39,ENE,60,0.0,1.0,96,0.00,,,0.00,weatherlink.com 1.10,2013-10-14 11:48:00,
2013-10-14 08:05:00,38.7,38.0,30.39,ENE,60,0.0,0.0,96,0.00,,,0.00,weatherlink.com 1.10,2013-10-14 12:05:00,
2013-10-14 08:17:00,41.3,41.0,30.39,ENE,60,0.0,0.0,97,0.00,,,0.00,weatherlink.com 1.10,2013-10-14 12:17:00,
2013-10-14 08:33:00,44.1,43.0,30.39,ENE,60,0.0,0.0,97,0.00,,,0.00,weatherlink.com 1.10,2013-10-14 12:33:00,
2013-10-14 08:48:00,47.2,46.0,30.39,ENE,60,0.0,0.0,97,0.00,,,0.00,weatherlink.com 1.10,2013-10-14 12:48:00,
2013-10-14 09:03:00,51.4,51.0,30.39,NNW,333,1.0,3.0,97,0.00,,,0.00,weatherlink.com 1.10,2013-10-14 13:03:00,
2013-10-14 09:18:00,52.6,52.0,30.39,NNW,345,2.0,4.0,97,0.00,,,0.00,weatherlink.com 1.10,2013-10-14 13:18:00,
2013-10-14 09:33:00,53.9,53.0,30.38,NW,316,0.0,2.0,97,0.00,,,0.00,weatherlink.com 1.10,2013-10-14 13:33:00,
2013-10-14 09:48:00,55.9,51.0,30.38,ENE,62,1.0,4.0,84,0.00,,,0.00,weatherlink.com 1.10,2013-10-14 13:48:00,
2013-10-14 10:06:00,57.5,51.0,30.38,NE,53,1.0,4.0,79,0.00,,,0.00,weatherlink.com 1.10,2013-10-14 14:06:00,
2013-10-14 10:18:00,59.4,50.0,30.37,SSE,165,1.0,2.0,70,0.00,,,0.00,weatherlink.com 1.10,2013-10-14 14:18:00,
2013-10-14 10:33:00,60.8,50.0,30.37,South,169,1.0,5.0,67,0.00,,,0.00,weatherlink.com 1.10,2013-10-14 14:33:00,
2013-10-14 10:48:00,61.0,50.0,30.37,NNW,329,1.0,4.0,68,0.00,,,0.00,weatherlink.com 1.10,2013-10-14 14:48:00,
2013-10-14 11:06:00,61.1,50.0,30.36,NNW,341,0.0,6.0,68,0.00,,,0.00,weatherlink.com 1.10,2013-10-14 15:06:00,
2013-10-14 11:20:00,62.5,51.0,30.36,ESE,109,1.0,5.0,66,0.00,,,0.00,weatherlink.com 1.10,2013-10-14 15:20:00,
2013-10-14 11:34:00,63.1,52.0,30.36,SSE,161,2.0,5.0,67,0.00,,,0.00,weatherlink.com 1.10,2013-10-14 15:34:00,
2013-10-14 11:49:00,62.7,51.0,30.35,SE,144,2.0,5.0,66,0.00,,,0.00,weatherlink.com 1.10,2013-10-14 15:49:00,
2013-10-14 12:05:00,63.3,52.0,30.34,South,173,2.0,4.0,66,0.00,,,0.00,weatherlink.com 1.10,2013-10-14 16:05:00,
2013-10-14 12:19:00,63.3,51.0,30.34,WNW,290,4.0,6.0,65,0.00,,,0.00,weatherlink.com 1.10,2013-10-14 16:19:00,
2013-10-14 12:34:00,63.7,51.0,30.33,SSW,198,2.0,6.0,63,0.00,,,0.00,weatherlink.com 1.10,2013-10-14 16:34:00,
2013-10-14 12:49:00,63.8,51.0,30.32,WNW,286,1.0,5.0,63,0.00,,,0.00,weatherlink.com 1.10,2013-10-14 16:49:00,
2013-10-14 13:05:00,63.8,52.0,30.32,SSE,154,1.0,4.0,65,0.00,,,0.00,weatherlink.com 1.10,2013-10-14 17:05:00,
2013-10-14 13:18:00,64.5,51.0,30.32,SSW,201,4.0,4.0,62,0.00,,,0.00,weatherlink.com 1.10,2013-10-14 17:18:00,
2013-10-14 13:34:00,63.5,51.0,30.32,SSW,192,1.0,5.0,64,0.00,,,0.00,weatherlink.com 1.10,2013-10-14 17:34:00,
2013-10-14 13:49:00,63.4,51.0,30.31,WSW,243,2.0,6.0,65,0.00,,,0.00,weatherlink.com 1.10,2013-10-14 17:49:00,
2013-10-14 14:05:00,63.6,51.0,30.31,SW,219,3.0,6.0,63,0.00,,,0.00,weatherlink.com 1.10,2013-10-14 18:05:00,
2013-10-14 14:18:00,63.5,51.0,30.31,SSE,165,2.0,6.0,64,0.00,,,0.00,weatherlink.com 1.10,2013-10-14 18:18:00,
2013-10-14 14:33:00,62.5,51.0,30.31,WSW,240,1.0,4.0,66,0.00,,,0.00,weatherlink.com 1.10,2013-10-14 18:33:00,
2013-10-14 14:48:00,61.2,50.0,30.31,SSE,151,0.0,6.0,66,0.00,,,0.00,weatherlink.com 1.10,2013-10-14 18:48:00,
2013-10-14 15:06:00,61.0,49.0,30.31,South,174,3.0,4.0,66,0.00,,,0.00,weatherlink.com 1.10,2013-10-14 19:06:00,
2013-10-14 15:19:00,60.4,50.0,30.31,SSE,148,1.0,5.0,68,0.00,,,0.00,weatherlink.com 1.10,2013-10-14 19:19:00,
2013-10-14 15:34:00,60.4,50.0,30.30,SSE,163,0.0,6.0,68,0.00,,,0.00,weatherlink.com 1.10,2013-10-14 19:34:00,
2013-10-14 15:49:00,59.9,48.0,30.30,South,174,0.0,3.0,65,0.00,,,0.00,weatherlink.com 1.10,2013-10-14 19:49:00,
2013-10-14 16:05:00,59.4,50.0,30.30,SE,133,0.0,2.0,70,0.00,,,0.00,weatherlink.com 1.10,2013-10-14 20:05:00,
2013-10-14 16:18:00,58.9,49.0,30.30,SSE,159,1.0,2.0,70,0.00,,,0.00,weatherlink.com 1.10,2013-10-14 20:18:00,
2013-10-14 16:33:00,58.5,50.0,30.30,SSE,152,0.0,2.0,73,0.00,,,0.00,weatherlink.com 1.10,2013-10-14 20:33:00,
2013-10-14 16:49:00,58.2,50.0,30.29,South,172,0.0,1.0,75,0.00,,,0.00,weatherlink.com 1.10,2013-10-14 20:49:00,
2013-10-14 17:05:00,58.2,51.0,30.30,South,188,0.0,2.0,76,0.00,,,0.00,weatherlink.com 1.10,2013-10-14 21:05:00,
2013-10-14 17:19:00,58.3,50.0,30.29,SSE,149,0.0,1.0,75,0.00,,,0.00,weatherlink.com 1.10,2013-10-14 21:19:00,
2013-10-14 17:34:00,57.7,50.0,30.30,SSE,149,0.0,0.0,76,0.00,,,0.00,weatherlink.com 1.10,2013-10-14 21:34:00,
2013-10-14 17:49:00,56.3,50.0,30.30,SSE,149,0.0,0.0,79,0.00,,,0.00,weatherlink.com 1.10,2013-10-14 21:49:00,
2013-10-14 18:05:00,54.8,50.0,30.30,SSE,149,0.0,0.0,83,0.00,,,0.00,weatherlink.com 1.10,2013-10-14 22:05:00,
2013-10-14 18:19:00,52.1,48.0,30.31,SSE,149,0.0,0.0,86,0.00,,,0.00,weatherlink.com 1.10,2013-10-14 22:19:00,
2013-10-14 18:34:00,50.4,47.0,30.31,SSE,149,0.0,0.0,88,0.00,,,0.00,weatherlink.com 1.10,2013-10-14 22:34:00,
2013-10-14 18:49:00,49.0,46.0,30.31,SSE,149,0.0,1.0,90,0.00,,,0.00,weatherlink.com 1.10,2013-10-14 22:49:00,
2013-10-14 19:04:00,48.2,46.0,30.31,SSE,149,0.0,0.0,91,0.00,,,0.00,weatherlink.com 1.10,2013-10-14 23:04:00,
2013-10-14 19:19:00,47.6,45.0,30.31,SSE,149,0.0,0.0,92,0.00,,,0.00,weatherlink.com 1.10,2013-10-14 23:19:00,
2013-10-14 19:34:00,47.0,45.0,30.30,SSE,149,0.0,0.0,92,0.00,,,0.00,weatherlink.com 1.10,2013-10-14 23:34:00,
2013-10-14 19:49:00,46.2,44.0,30.30,SSE,149,0.0,0.0,92,0.00,,,0.00,weatherlink.com 1.10,2013-10-14 23:49:00,
2013-10-14 20:04:00,45.7,44.0,30.30,SSE,149,0.0,0.0,93,0.00,,,0.00,weatherlink.com 1.10,2013-10-15 00:04:00,
2013-10-14 20:19:00,45.2,43.0,30.30,SSE,149,0.0,0.0,93,0.00,,,0.00,weatherlink.com 1.10,2013-10-15 00:19:00,
2013-10-14 20:34:00,44.9,43.0,30.31,SSE,149,0.0,0.0,94,0.00,,,0.00,weatherlink.com 1.10,2013-10-15 00:34:00,
2013-10-14 20:49:00,44.5,43.0,30.31,SSE,149,0.0,0.0,94,0.00,,,0.00,weatherlink.com 1.10,2013-10-15 00:49:00,
2013-10-14 21:06:00,44.0,42.0,30.31,SSE,149,0.0,0.0,94,0.00,,,0.00,weatherlink.com 1.10,2013-10-15 01:06:00,
2013-10-14 21:20:00,43.7,42.0,30.31,SSE,149,0.0,0.0,94,0.00,,,0.00,weatherlink.com 1.10,2013-10-15 01:20:00,
2013-10-14 21:35:00,43.3,42.0,30.32,SSE,149,0.0,0.0,94,0.00,,,0.00,weatherlink.com 1.10,2013-10-15 01:35:00,
2013-10-14 21:50:00,43.3,42.0,30.31,SSE,149,0.0,1.0,95,0.00,,,0.00,weatherlink.com 1.10,2013-10-15 01:50:00,
2013-10-14 22:06:00,43.4,42.0,30.31,SSE,149,0.0,0.0,95,0.00,,,0.00,weatherlink.com 1.10,2013-10-15 02:06:00,
2013-10-14 22:20:00,43.0,42.0,30.31,SSE,149,0.0,0.0,95,0.00,,,0.00,weatherlink.com 1.10,2013-10-15 02:20:00,
2013-10-14 22:35:00,42.5,41.0,30.31,SSE,149,0.0,0.0,95,0.00,,,0.00,weatherlink.com 1.10,2013-10-15 02:35:00,
2013-10-14 22:50:00,42.3,41.0,30.31,SSE,149,0.0,0.0,95,0.00,,,0.00,weatherlink.com 1.10,2013-10-15 02:50:00,
2013-10-14 23:19:00,41.6,40.0,30.30,SSE,149,0.0,0.0,95,0.00,,,0.00,weatherlink.com 1.10,2013-10-15 03:19:00,
2013-10-14 23:34:00,41.5,40.0,30.29,SSE,149,0.0,0.0,95,0.00,,,0.00,weatherlink.com 1.10,2013-10-15 03:34:00,
2013-10-14 23:49:00,41.8,41.0,30.30,SSE,149,0.0,1.0,95,0.00,,,0.00,weatherlink.com 1.10,2013-10-15 03:49:00,